KPIH

Pocatello Regional Airport

Pocatello, Idaho, USA
METAR KPIH 231053Z AUTO 21008KT 10SM BKN025 M02/M05 A3030 RMK AO2 SLP284 T10171050 $
Observed Flight Rules
Jan-23 @ 10:53 UTC (an hour ago) Marginal Visual Flight Rules
Wind Visibility Clouds
210° at 8 knots 10 miles
  • Broken at 2,500' AGL
Temperatures Readings
Current -2°C / 28°F
Dewpoint -5°C / 23°F
Humidity 80%
Altimeter 30.3" Hg
Pressure 1028.4 hPa
Elevation 1359
METAR KPIH 231053Z AUTO 21008KT 10SM BKN025 M02/M05 A3030 RMK AO2 SLP284 T10171050 $
Observed Flight Rules
Jan-23 @ 10:53 UTC
(an hour ago)
MVFR
Wind Visibility
210° at 8 knots 10 miles
Clouds
  • Broken at 2,500' AGL
Temperature Dewpoint
-2°C / 28°F -5°C / 23°F
Humidity Altimeter Pressure
80% 30.3" Hg 1028.4 hPa